Terminal Aerodrome Forecast
Issued by NWS Knoxville/Tri Cities, TN

Home | Current Version | Previous Version | Text Only | Print | Product List | Glossary On
Versions: 1 2 3 4 5 6 7 8 9 10 11 12 13 14 15 16 17 18 19 20 21 22 23 24
000
FTUS44 KMRX 231125
TAFTYS
TAF
KTYS 231125Z 2312/2412 03007KT P6SM BKN060
     FM231500 06008KT P6SM OVC050
     FM231800 07010KT 4SM -RA BR OVC040
     FM232100 18009KT 3SM -RA BR OVC035
     FM240200 21012KT 5SM -RA BR BKN035
     FM240700 22014KT P6SM VCSH BKN025=

USA.gov is the U.S. government's official web portal to all federal, state and local government web resources and services.